sensor_id;sensor_type;location;lat;lon;timestamp;temperature;humidity
15543;DHT22;7873;52.230;12.856;2022-12-18T00:02:18;25.00;31.70
15543;DHT22;7873;52.230;12.856;2022-12-18T00:04:45;25.00;31.90
15543;DHT22;7873;52.230;12.856;2022-12-18T00:07:12;24.90;31.90
15543;DHT22;7873;52.230;12.856;2022-12-18T00:09:38;24.80;32.00
15543;DHT22;7873;52.230;12.856;2022-12-18T00:12:05;24.80;32.00
15543;DHT22;7873;52.230;12.856;2022-12-18T00:14:32;24.80;32.20
15543;DHT22;7873;52.230;12.856;2022-12-18T00:17:00;24.70;32.30
15543;DHT22;7873;52.230;12.856;2022-12-18T00:19:27;24.60;32.30
15543;DHT22;7873;52.230;12.856;2022-12-18T00:21:54;24.60;32.50
15543;DHT22;7873;52.230;12.856;2022-12-18T00:24:21;24.60;32.60
15543;DHT22;7873;52.230;12.856;2022-12-18T00:26:47;24.60;32.60
15543;DHT22;7873;52.230;12.856;2022-12-18T00:29:14;24.50;32.70
15543;DHT22;7873;52.230;12.856;2022-12-18T00:31:41;24.40;32.70
15543;DHT22;7873;52.230;12.856;2022-12-18T00:34:10;24.40;32.80
15543;DHT22;7873;52.230;12.856;2022-12-18T00:36:38;24.40;33.00
15543;DHT22;7873;52.230;12.856;2022-12-18T00:39:05;24.30;33.00
15543;DHT22;7873;52.230;12.856;2022-12-18T00:41:32;24.30;33.00
15543;DHT22;7873;52.230;12.856;2022-12-18T00:44:17;24.30;33.10
15543;DHT22;7873;52.230;12.856;2022-12-18T00:46:44;24.20;33.10
15543;DHT22;7873;52.230;12.856;2022-12-18T00:49:14;24.20;33.20
15543;DHT22;7873;52.230;12.856;2022-12-18T00:51:41;24.20;33.30
15543;DHT22;7873;52.230;12.856;2022-12-18T00:54:07;24.10;33.40
15543;DHT22;7873;52.230;12.856;2022-12-18T00:56:35;24.10;33.40
15543;DHT22;7873;52.230;12.856;2022-12-18T00:59:02;24.10;33.50
15543;DHT22;7873;52.230;12.856;2022-12-18T01:01:29;24.00;33.50
15543;DHT22;7873;52.230;12.856;2022-12-18T01:03:56;24.00;33.60
15543;DHT22;7873;52.230;12.856;2022-12-18T01:06:24;24.00;34.30
15543;DHT22;7873;52.230;12.856;2022-12-18T01:08:50;24.00;33.60
15543;DHT22;7873;52.230;12.856;2022-12-18T01:11:17;23.90;33.60
15543;DHT22;7873;52.230;12.856;2022-12-18T01:13:45;23.90;33.60
15543;DHT22;7873;52.230;12.856;2022-12-18T01:16:12;23.90;33.70
15543;DHT22;7873;52.230;12.856;2022-12-18T01:18:40;23.90;33.80
15543;DHT22;7873;52.230;12.856;2022-12-18T01:21:08;23.90;33.80
15543;DHT22;7873;52.230;12.856;2022-12-18T01:23:36;23.80;33.90
15543;DHT22;7873;52.230;12.856;2022-12-18T01:26:04;23.80;33.80
15543;DHT22;7873;52.230;12.856;2022-12-18T01:28:32;23.80;34.00
15543;DHT22;7873;52.230;12.856;2022-12-18T01:31:08;23.80;34.00
15543;DHT22;7873;52.230;12.856;2022-12-18T01:33:36;23.80;34.00
15543;DHT22;7873;52.230;12.856;2022-12-18T01:36:03;23.70;34.00
15543;DHT22;7873;52.230;12.856;2022-12-18T01:38:30;23.70;34.00
15543;DHT22;7873;52.230;12.856;2022-12-18T01:40:58;23.70;34.10
15543;DHT22;7873;52.230;12.856;2022-12-18T01:43:40;23.70;34.10
15543;DHT22;7873;52.230;12.856;2022-12-18T01:46:08;23.70;34.20
15543;DHT22;7873;52.230;12.856;2022-12-18T01:48:35;23.70;34.30
15543;DHT22;7873;52.230;12.856;2022-12-18T01:51:02;23.70;34.40
15543;DHT22;7873;52.230;12.856;2022-12-18T01:53:30;23.60;34.20
15543;DHT22;7873;52.230;12.856;2022-12-18T01:55:58;23.60;34.20
15543;DHT22;7873;52.230;12.856;2022-12-18T01:58:27;23.60;34.20
15543;DHT22;7873;52.230;12.856;2022-12-18T02:00:59;23.60;34.30
15543;DHT22;7873;52.230;12.856;2022-12-18T02:03:25;23.60;34.30
15543;DHT22;7873;52.230;12.856;2022-12-18T02:05:53;23.60;34.40
15543;DHT22;7873;52.230;12.856;2022-12-18T02:08:28;23.50;34.50
15543;DHT22;7873;52.230;12.856;2022-12-18T02:11:02;23.50;34.50
15543;DHT22;7873;52.230;12.856;2022-12-18T02:13:36;23.50;34.60
15543;DHT22;7873;52.230;12.856;2022-12-18T02:16:09;23.50;34.70
15543;DHT22;7873;52.230;12.856;2022-12-18T02:18:46;23.40;34.70
15543;DHT22;7873;52.230;12.856;2022-12-18T02:21:18;23.40;34.70
15543;DHT22;7873;52.230;12.856;2022-12-18T02:23:52;23.40;34.80
15543;DHT22;7873;52.230;12.856;2022-12-18T02:26:26;23.40;34.90
15543;DHT22;7873;52.230;12.856;2022-12-18T02:28:57;23.40;34.80
15543;DHT22;7873;52.230;12.856;2022-12-18T02:31:27;23.30;34.90
15543;DHT22;7873;52.230;12.856;2022-12-18T02:33:56;23.30;34.90
15543;DHT22;7873;52.230;12.856;2022-12-18T02:36:26;23.20;34.80
15543;DHT22;7873;52.230;12.856;2022-12-18T02:38:55;23.30;34.90
15543;DHT22;7873;52.230;12.856;2022-12-18T02:41:25;23.30;34.90
15543;DHT22;7873;52.230;12.856;2022-12-18T02:43:53;23.20;34.90
15543;DHT22;7873;52.230;12.856;2022-12-18T02:46:26;23.20;34.90
15543;DHT22;7873;52.230;12.856;2022-12-18T02:49:00;23.20;34.90
15543;DHT22;7873;52.230;12.856;2022-12-18T02:51:33;23.20;34.90
15543;DHT22;7873;52.230;12.856;2022-12-18T02:54:09;23.10;35.00
15543;DHT22;7873;52.230;12.856;2022-12-18T02:56:45;23.10;35.00
15543;DHT22;7873;52.230;12.856;2022-12-18T02:59:17;23.10;35.00
15543;DHT22;7873;52.230;12.856;2022-12-18T03:01:49;23.10;35.10
15543;DHT22;7873;52.230;12.856;2022-12-18T03:04:19;23.10;35.80
15543;DHT22;7873;52.230;12.856;2022-12-18T03:06:51;23.10;35.10
15543;DHT22;7873;52.230;12.856;2022-12-18T03:09:21;23.00;35.10
15543;DHT22;7873;52.230;12.856;2022-12-18T03:11:53;23.00;35.00
15543;DHT22;7873;52.230;12.856;2022-12-18T03:14:48;23.00;35.10
15543;DHT22;7873;52.230;12.856;2022-12-18T03:17:19;23.00;35.10
15543;DHT22;7873;52.230;12.856;2022-12-18T03:19:48;23.00;35.10
15543;DHT22;7873;52.230;12.856;2022-12-18T03:22:17;23.00;35.10
15543;DHT22;7873;52.230;12.856;2022-12-18T03:24:45;23.00;35.10
15543;DHT22;7873;52.230;12.856;2022-12-18T03:27:14;23.00;35.10
15543;DHT22;7873;52.230;12.856;2022-12-18T03:29:46;23.00;35.00
15543;DHT22;7873;52.230;12.856;2022-12-18T03:32:15;23.00;35.10
15543;DHT22;7873;52.230;12.856;2022-12-18T03:34:50;23.00;35.10
15543;DHT22;7873;52.230;12.856;2022-12-18T03:37:18;22.90;35.10
15543;DHT22;7873;52.230;12.856;2022-12-18T03:39:45;22.90;35.00
15543;DHT22;7873;52.230;12.856;2022-12-18T03:42:13;22.90;35.10
15543;DHT22;7873;52.230;12.856;2022-12-18T03:44:48;22.90;35.10
15543;DHT22;7873;52.230;12.856;2022-12-18T03:47:22;22.90;35.10
15543;DHT22;7873;52.230;12.856;2022-12-18T03:49:55;22.90;35.10
15543;DHT22;7873;52.230;12.856;2022-12-18T03:52:26;22.90;35.10
15543;DHT22;7873;52.230;12.856;2022-12-18T03:54:56;22.90;35.20
15543;DHT22;7873;52.230;12.856;2022-12-18T03:57:27;22.90;35.20
15543;DHT22;7873;52.230;12.856;2022-12-18T03:59:57;22.90;35.20
15543;DHT22;7873;52.230;12.856;2022-12-18T04:02:27;22.90;35.20
15543;DHT22;7873;52.230;12.856;2022-12-18T04:04:56;22.90;35.10
15543;DHT22;7873;52.230;12.856;2022-12-18T04:07:26;22.90;35.00
15543;DHT22;7873;52.230;12.856;2022-12-18T04:09:54;22.90;35.00
15543;DHT22;7873;52.230;12.856;2022-12-18T04:12:23;23.00;35.00
15543;DHT22;7873;52.230;12.856;2022-12-18T04:14:52;22.90;35.00
15543;DHT22;7873;52.230;12.856;2022-12-18T04:17:18;22.90;35.00
15543;DHT22;7873;52.230;12.856;2022-12-18T04:19:45;22.90;35.00
15543;DHT22;7873;52.230;12.856;2022-12-18T04:22:12;22.90;35.10
15543;DHT22;7873;52.230;12.856;2022-12-18T04:24:38;22.90;35.00
15543;DHT22;7873;52.230;12.856;2022-12-18T04:27:05;22.80;35.00
15543;DHT22;7873;52.230;12.856;2022-12-18T04:29:32;22.80;35.90
15543;DHT22;7873;52.230;12.856;2022-12-18T04:32:00;22.80;35.20
15543;DHT22;7873;52.230;12.856;2022-12-18T04:34:26;22.80;35.20
15543;DHT22;7873;52.230;12.856;2022-12-18T04:36:53;22.70;35.20
15543;DHT22;7873;52.230;12.856;2022-12-18T04:39:20;22.70;35.30
15543;DHT22;7873;52.230;12.856;2022-12-18T04:41:46;22.70;35.30
15543;DHT22;7873;52.230;12.856;2022-12-18T04:44:13;22.70;35.30
15543;DHT22;7873;52.230;12.856;2022-12-18T04:46:40;22.70;35.30
15543;DHT22;7873;52.230;12.856;2022-12-18T04:49:08;22.60;35.30
15543;DHT22;7873;52.230;12.856;2022-12-18T04:51:35;22.60;35.30
15543;DHT22;7873;52.230;12.856;2022-12-18T04:54:02;22.70;35.30
15543;DHT22;7873;52.230;12.856;2022-12-18T04:56:30;22.60;35.30
15543;DHT22;7873;52.230;12.856;2022-12-18T04:58:57;22.60;35.30
15543;DHT22;7873;52.230;12.856;2022-12-18T05:01:24;22.60;35.40
15543;DHT22;7873;52.230;12.856;2022-12-18T05:03:51;22.60;35.40
15543;DHT22;7873;52.230;12.856;2022-12-18T05:06:19;22.60;35.40
15543;DHT22;7873;52.230;12.856;2022-12-18T05:08:45;22.60;35.40
15543;DHT22;7873;52.230;12.856;2022-12-18T05:11:13;22.60;35.30
15543;DHT22;7873;52.230;12.856;2022-12-18T05:13:41;22.60;35.30
15543;DHT22;7873;52.230;12.856;2022-12-18T05:16:09;22.60;35.30
15543;DHT22;7873;52.230;12.856;2022-12-18T05:18:36;22.60;35.40
15543;DHT22;7873;52.230;12.856;2022-12-18T05:21:03;22.60;35.40
15543;DHT22;7873;52.230;12.856;2022-12-18T05:23:32;22.50;35.40
15543;DHT22;7873;52.230;12.856;2022-12-18T05:25:59;22.50;35.40
15543;DHT22;7873;52.230;12.856;2022-12-18T05:28:28;22.50;35.40
15543;DHT22;7873;52.230;12.856;2022-12-18T05:30:56;22.60;35.40
15543;DHT22;7873;52.230;12.856;2022-12-18T05:33:25;22.50;35.40
15543;DHT22;7873;52.230;12.856;2022-12-18T05:35:53;22.50;35.40
15543;DHT22;7873;52.230;12.856;2022-12-18T05:38:21;22.50;35.40
15543;DHT22;7873;52.230;12.856;2022-12-18T05:40:51;22.50;35.40
15543;DHT22;7873;52.230;12.856;2022-12-18T05:43:19;22.50;35.40
15543;DHT22;7873;52.230;12.856;2022-12-18T05:45:46;22.50;35.40
15543;DHT22;7873;52.230;12.856;2022-12-18T05:48:14;22.50;35.40
15543;DHT22;7873;52.230;12.856;2022-12-18T05:50:41;22.50;35.50
15543;DHT22;7873;52.230;12.856;2022-12-18T05:53:10;22.50;35.40
15543;DHT22;7873;52.230;12.856;2022-12-18T05:55:37;22.50;35.40
15543;DHT22;7873;52.230;12.856;2022-12-18T05:58:07;22.50;35.40
15543;DHT22;7873;52.230;12.856;2022-12-18T06:00:35;22.50;35.40
15543;DHT22;7873;52.230;12.856;2022-12-18T06:03:05;22.50;35.50
15543;DHT22;7873;52.230;12.856;2022-12-18T06:05:34;22.40;35.40
15543;DHT22;7873;52.230;12.856;2022-12-18T06:08:01;22.40;35.40
15543;DHT22;7873;52.230;12.856;2022-12-18T06:10:28;22.40;35.50
15543;DHT22;7873;52.230;12.856;2022-12-18T06:12:54;22.40;35.50
15543;DHT22;7873;52.230;12.856;2022-12-18T06:15:22;22.40;35.50
15543;DHT22;7873;52.230;12.856;2022-12-18T06:17:49;22.40;35.50
15543;DHT22;7873;52.230;12.856;2022-12-18T06:20:16;22.40;35.50
15543;DHT22;7873;52.230;12.856;2022-12-18T06:22:43;22.40;35.50
15543;DHT22;7873;52.230;12.856;2022-12-18T06:25:10;22.30;35.60
15543;DHT22;7873;52.230;12.856;2022-12-18T06:27:37;22.30;35.60
15543;DHT22;7873;52.230;12.856;2022-12-18T06:30:04;22.40;35.70
15543;DHT22;7873;52.230;12.856;2022-12-18T06:32:32;22.30;35.60
15543;DHT22;7873;52.230;12.856;2022-12-18T06:34:59;22.30;35.60
15543;DHT22;7873;52.230;12.856;2022-12-18T06:37:26;22.30;35.50
15543;DHT22;7873;52.230;12.856;2022-12-18T06:39:53;22.40;35.50
15543;DHT22;7873;52.230;12.856;2022-12-18T06:42:21;22.40;35.50
15543;DHT22;7873;52.230;12.856;2022-12-18T06:44:48;22.40;35.50
15543;DHT22;7873;52.230;12.856;2022-12-18T06:47:15;22.40;35.50
15543;DHT22;7873;52.230;12.856;2022-12-18T06:49:43;22.40;35.40
15543;DHT22;7873;52.230;12.856;2022-12-18T06:52:09;22.40;35.40
15543;DHT22;7873;52.230;12.856;2022-12-18T06:54:36;22.40;35.40
15543;DHT22;7873;52.230;12.856;2022-12-18T06:57:03;22.40;35.40
15543;DHT22;7873;52.230;12.856;2022-12-18T06:59:29;22.40;35.40
15543;DHT22;7873;52.230;12.856;2022-12-18T07:01:56;22.30;35.30
15543;DHT22;7873;52.230;12.856;2022-12-18T07:04:26;22.40;35.70
15543;DHT22;7873;52.230;12.856;2022-12-18T07:06:55;22.40;36.10
15543;DHT22;7873;52.230;12.856;2022-12-18T07:09:22;22.40;35.90
15543;DHT22;7873;52.230;12.856;2022-12-18T07:11:49;22.40;35.90
15543;DHT22;7873;52.230;12.856;2022-12-18T07:14:15;22.40;36.10
15543;DHT22;7873;52.230;12.856;2022-12-18T07:16:42;22.50;35.90
15543;DHT22;7873;52.230;12.856;2022-12-18T07:19:09;22.50;36.10
15543;DHT22;7873;52.230;12.856;2022-12-18T07:21:36;22.50;35.50
15543;DHT22;7873;52.230;12.856;2022-12-18T07:24:04;22.50;35.80
15543;DHT22;7873;52.230;12.856;2022-12-18T07:26:32;22.50;35.90
15543;DHT22;7873;52.230;12.856;2022-12-18T07:28:58;22.50;35.70
15543;DHT22;7873;52.230;12.856;2022-12-18T07:31:25;22.40;35.20
15543;DHT22;7873;52.230;12.856;2022-12-18T07:33:52;22.40;35.70
15543;DHT22;7873;52.230;12.856;2022-12-18T07:36:19;22.40;35.80
15543;DHT22;7873;52.230;12.856;2022-12-18T07:38:46;22.40;36.10
15543;DHT22;7873;52.230;12.856;2022-12-18T07:41:15;22.40;35.80
15543;DHT22;7873;52.230;12.856;2022-12-18T07:43:44;22.50;36.20
15543;DHT22;7873;52.230;12.856;2022-12-18T07:46:11;22.80;35.80
15543;DHT22;7873;52.230;12.856;2022-12-18T07:48:39;23.20;35.20
15543;DHT22;7873;52.230;12.856;2022-12-18T07:51:07;23.50;34.30
15543;DHT22;7873;52.230;12.856;2022-12-18T07:53:34;23.70;34.40
15543;DHT22;7873;52.230;12.856;2022-12-18T07:56:02;24.00;34.00
15543;DHT22;7873;52.230;12.856;2022-12-18T07:58:33;24.20;33.50
15543;DHT22;7873;52.230;12.856;2022-12-18T08:01:02;24.30;33.30
15543;DHT22;7873;52.230;12.856;2022-12-18T08:03:29;24.40;32.70
15543;DHT22;7873;52.230;12.856;2022-12-18T08:05:57;24.60;32.50
15543;DHT22;7873;52.230;12.856;2022-12-18T08:08:25;24.60;32.50
15543;DHT22;7873;52.230;12.856;2022-12-18T08:10:51;24.70;32.00
15543;DHT22;7873;52.230;12.856;2022-12-18T08:13:18;24.70;30.50
15543;DHT22;7873;52.230;12.856;2022-12-18T08:15:46;24.30;28.50
15543;DHT22;7873;52.230;12.856;2022-12-18T08:18:21;24.10;29.00
15543;DHT22;7873;52.230;12.856;2022-12-18T08:20:47;24.00;29.60
15543;DHT22;7873;52.230;12.856;2022-12-18T08:23:14;24.00;29.60
15543;DHT22;7873;52.230;12.856;2022-12-18T08:25:41;24.00;29.80
15543;DHT22;7873;52.230;12.856;2022-12-18T08:28:07;23.90;29.60
15543;DHT22;7873;52.230;12.856;2022-12-18T08:30:34;24.00;29.30
15543;DHT22;7873;52.230;12.856;2022-12-18T08:33:03;24.00;29.40
15543;DHT22;7873;52.230;12.856;2022-12-18T08:35:29;24.10;29.40
15543;DHT22;7873;52.230;12.856;2022-12-18T08:37:56;24.20;29.40
15543;DHT22;7873;52.230;12.856;2022-12-18T08:40:23;24.30;29.30
15543;DHT22;7873;52.230;12.856;2022-12-18T08:42:49;24.30;29.50
15543;DHT22;7873;52.230;12.856;2022-12-18T08:45:30;24.50;29.40
15543;DHT22;7873;52.230;12.856;2022-12-18T08:47:59;24.60;29.30
15543;DHT22;7873;52.230;12.856;2022-12-18T08:50:27;24.60;29.40
15543;DHT22;7873;52.230;12.856;2022-12-18T08:52:54;24.60;29.30
15543;DHT22;7873;52.230;12.856;2022-12-18T08:55:23;24.60;29.30
15543;DHT22;7873;52.230;12.856;2022-12-18T08:57:50;24.50;29.60
15543;DHT22;7873;52.230;12.856;2022-12-18T09:00:17;24.50;29.50
15543;DHT22;7873;52.230;12.856;2022-12-18T09:02:44;24.60;29.80
15543;DHT22;7873;52.230;12.856;2022-12-18T09:05:13;24.50;29.70
15543;DHT22;7873;52.230;12.856;2022-12-18T09:07:44;24.40;29.90
15543;DHT22;7873;52.230;12.856;2022-12-18T09:10:14;24.40;30.00
15543;DHT22;7873;52.230;12.856;2022-12-18T09:12:45;24.40;30.20
15543;DHT22;7873;52.230;12.856;2022-12-18T09:15:15;24.60;30.00
15543;DHT22;7873;52.230;12.856;2022-12-18T09:17:43;24.60;30.00
15543;DHT22;7873;52.230;12.856;2022-12-18T09:20:11;24.70;30.10
15543;DHT22;7873;52.230;12.856;2022-12-18T09:22:38;24.80;29.90
15543;DHT22;7873;52.230;12.856;2022-12-18T09:25:06;24.90;29.80
15543;DHT22;7873;52.230;12.856;2022-12-18T09:27:34;25.10;29.60
15543;DHT22;7873;52.230;12.856;2022-12-18T09:30:03;25.20;29.70
15543;DHT22;7873;52.230;12.856;2022-12-18T09:32:33;25.30;29.90
15543;DHT22;7873;52.230;12.856;2022-12-18T09:35:04;25.40;29.80
15543;DHT22;7873;52.230;12.856;2022-12-18T09:37:33;25.40;29.80
15543;DHT22;7873;52.230;12.856;2022-12-18T09:40:02;25.30;29.90
15543;DHT22;7873;52.230;12.856;2022-12-18T09:42:30;25.30;30.00
15543;DHT22;7873;52.230;12.856;2022-12-18T09:44:59;25.30;29.70
15543;DHT22;7873;52.230;12.856;2022-12-18T09:47:28;25.30;30.00
15543;DHT22;7873;52.230;12.856;2022-12-18T09:50:01;25.30;30.00
15543;DHT22;7873;52.230;12.856;2022-12-18T09:52:30;25.30;30.10
15543;DHT22;7873;52.230;12.856;2022-12-18T09:55:05;25.30;30.10
15543;DHT22;7873;52.230;12.856;2022-12-18T09:57:49;25.30;30.00
15543;DHT22;7873;52.230;12.856;2022-12-18T10:00:20;25.30;30.20
15543;DHT22;7873;52.230;12.856;2022-12-18T10:02:50;25.30;30.50
15543;DHT22;7873;52.230;12.856;2022-12-18T10:05:24;25.10;28.50
15543;DHT22;7873;52.230;12.856;2022-12-18T10:08:00;24.90;28.10
15543;DHT22;7873;52.230;12.856;2022-12-18T10:10:35;24.70;28.10
15543;DHT22;7873;52.230;12.856;2022-12-18T10:13:09;24.60;28.10
15543;DHT22;7873;52.230;12.856;2022-12-18T10:15:56;24.60;29.10
15543;DHT22;7873;52.230;12.856;2022-12-18T10:18:36;24.60;30.00
15543;DHT22;7873;52.230;12.856;2022-12-18T10:21:21;24.60;29.60
15543;DHT22;7873;52.230;12.856;2022-12-18T10:23:54;24.50;30.20
15543;DHT22;7873;52.230;12.856;2022-12-18T10:26:27;24.60;30.20
15543;DHT22;7873;52.230;12.856;2022-12-18T10:29:00;24.50;30.40
15543;DHT22;7873;52.230;12.856;2022-12-18T10:31:28;24.40;30.60
15543;DHT22;7873;52.230;12.856;2022-12-18T10:33:59;24.60;30.50
15543;DHT22;7873;52.230;12.856;2022-12-18T10:36:26;24.60;28.50
15543;DHT22;7873;52.230;12.856;2022-12-18T10:38:55;24.90;28.50
15543;DHT22;7873;52.230;12.856;2022-12-18T10:41:43;25.20;28.40
15543;DHT22;7873;52.230;12.856;2022-12-18T10:44:17;25.50;27.70
15543;DHT22;7873;52.230;12.856;2022-12-18T10:46:47;25.90;26.90
15543;DHT22;7873;52.230;12.856;2022-12-18T10:49:19;26.10;26.50
15543;DHT22;7873;52.230;12.856;2022-12-18T10:51:49;26.20;26.60
15543;DHT22;7873;52.230;12.856;2022-12-18T10:54:17;26.30;27.30
15543;DHT22;7873;52.230;12.856;2022-12-18T10:56:49;26.60;26.90
15543;DHT22;7873;52.230;12.856;2022-12-18T10:59:18;26.90;26.60
15543;DHT22;7873;52.230;12.856;2022-12-18T11:01:48;27.10;26.30
15543;DHT22;7873;52.230;12.856;2022-12-18T11:04:19;27.30;25.90
15543;DHT22;7873;52.230;12.856;2022-12-18T11:06:53;27.30;26.20
15543;DHT22;7873;52.230;12.856;2022-12-18T11:09:25;27.30;26.20
15543;DHT22;7873;52.230;12.856;2022-12-18T11:11:54;27.40;26.40
15543;DHT22;7873;52.230;12.856;2022-12-18T11:14:28;27.50;25.90
15543;DHT22;7873;52.230;12.856;2022-12-18T11:16:58;27.40;26.00
15543;DHT22;7873;52.230;12.856;2022-12-18T11:19:32;27.40;29.30
15543;DHT22;7873;52.230;12.856;2022-12-18T11:22:03;27.70;28.70
15543;DHT22;7873;52.230;12.856;2022-12-18T11:24:52;28.00;28.30
15543;DHT22;7873;52.230;12.856;2022-12-18T11:27:22;28.10;28.20
15543;DHT22;7873;52.230;12.856;2022-12-18T11:29:52;28.10;28.80
15543;DHT22;7873;52.230;12.856;2022-12-18T11:32:36;28.20;27.80
15543;DHT22;7873;52.230;12.856;2022-12-18T11:35:11;28.20;28.30
15543;DHT22;7873;52.230;12.856;2022-12-18T11:37:46;28.10;27.90
15543;DHT22;7873;52.230;12.856;2022-12-18T11:40:17;28.10;28.40
15543;DHT22;7873;52.230;12.856;2022-12-18T11:42:48;28.10;27.90
15543;DHT22;7873;52.230;12.856;2022-12-18T11:45:27;28.00;27.70
15543;DHT22;7873;52.230;12.856;2022-12-18T11:48:00;27.90;27.90
15543;DHT22;7873;52.230;12.856;2022-12-18T11:50:32;27.70;27.60
15543;DHT22;7873;52.230;12.856;2022-12-18T11:53:09;27.40;28.20
15543;DHT22;7873;52.230;12.856;2022-12-18T11:55:39;27.30;28.00
15543;DHT22;7873;52.230;12.856;2022-12-18T11:58:12;27.20;28.30
15543;DHT22;7873;52.230;12.856;2022-12-18T12:00:49;27.30;28.40
15543;DHT22;7873;52.230;12.856;2022-12-18T12:03:26;27.30;28.20
15543;DHT22;7873;52.230;12.856;2022-12-18T12:06:08;27.50;28.20
15543;DHT22;7873;52.230;12.856;2022-12-18T12:08:45;27.60;27.90
15543;DHT22;7873;52.230;12.856;2022-12-18T12:11:22;27.70;27.80
15543;DHT22;7873;52.230;12.856;2022-12-18T12:14:01;27.80;27.70
15543;DHT22;7873;52.230;12.856;2022-12-18T12:16:40;27.80;27.80
15543;DHT22;7873;52.230;12.856;2022-12-18T12:19:16;27.90;27.70
15543;DHT22;7873;52.230;12.856;2022-12-18T12:21:50;28.00;27.60
15543;DHT22;7873;52.230;12.856;2022-12-18T12:24:25;28.00;27.60
15543;DHT22;7873;52.230;12.856;2022-12-18T12:27:05;28.10;27.50
15543;DHT22;7873;52.230;12.856;2022-12-18T12:29:46;28.00;27.50
15543;DHT22;7873;52.230;12.856;2022-12-18T12:32:25;28.00;27.50
15543;DHT22;7873;52.230;12.856;2022-12-18T12:35:03;28.00;27.50
15543;DHT22;7873;52.230;12.856;2022-12-18T12:37:43;28.00;27.40
15543;DHT22;7873;52.230;12.856;2022-12-18T12:40:17;27.90;27.50
15543;DHT22;7873;52.230;12.856;2022-12-18T12:42:46;27.90;27.60
15543;DHT22;7873;52.230;12.856;2022-12-18T12:45:36;27.90;27.70
15543;DHT22;7873;52.230;12.856;2022-12-18T12:48:10;27.80;27.70
15543;DHT22;7873;52.230;12.856;2022-12-18T12:50:43;27.70;28.00
15543;DHT22;7873;52.230;12.856;2022-12-18T12:53:14;27.60;27.90
15543;DHT22;7873;52.230;12.856;2022-12-18T12:55:48;27.40;28.00
15543;DHT22;7873;52.230;12.856;2022-12-18T12:58:16;27.30;28.10
15543;DHT22;7873;52.230;12.856;2022-12-18T13:00:50;27.20;28.40
15543;DHT22;7873;52.230;12.856;2022-12-18T13:03:27;27.10;28.50
15543;DHT22;7873;52.230;12.856;2022-12-18T13:06:04;27.00;28.60
15543;DHT22;7873;52.230;12.856;2022-12-18T13:08:51;26.90;28.70
15543;DHT22;7873;52.230;12.856;2022-12-18T13:11:28;26.80;28.80
15543;DHT22;7873;52.230;12.856;2022-12-18T13:14:20;26.60;29.00
15543;DHT22;7873;52.230;12.856;2022-12-18T13:16:49;26.50;29.10
15543;DHT22;7873;52.230;12.856;2022-12-18T13:19:22;26.40;29.20
15543;DHT22;7873;52.230;12.856;2022-12-18T13:21:52;26.40;29.30
15543;DHT22;7873;52.230;12.856;2022-12-18T13:24:22;26.30;29.40
15543;DHT22;7873;52.230;12.856;2022-12-18T13:26:51;26.20;29.50
15543;DHT22;7873;52.230;12.856;2022-12-18T13:32:19;26.00;29.70
15543;DHT22;7873;52.230;12.856;2022-12-18T13:34:48;25.90;29.80
15543;DHT22;7873;52.230;12.856;2022-12-18T13:37:42;25.90;29.80
15543;DHT22;7873;52.230;12.856;2022-12-18T13:43:24;25.80;30.00
15543;DHT22;7873;52.230;12.856;2022-12-18T13:45:59;25.70;30.00
15543;DHT22;7873;52.230;12.856;2022-12-18T13:48:40;25.60;30.10
15543;DHT22;7873;52.230;12.856;2022-12-18T13:51:18;25.60;30.20
15543;DHT22;7873;52.230;12.856;2022-12-18T13:53:47;25.50;30.20
15543;DHT22;7873;52.230;12.856;2022-12-18T13:56:17;25.40;30.40
15543;DHT22;7873;52.230;12.856;2022-12-18T14:01:43;25.20;30.70
15543;DHT22;7873;52.230;12.856;2022-12-18T14:07:03;25.10;31.00
15543;DHT22;7873;52.230;12.856;2022-12-18T14:09:34;25.00;31.20
15543;DHT22;7873;52.230;12.856;2022-12-18T14:12:03;24.90;31.20
15543;DHT22;7873;52.230;12.856;2022-12-18T14:14:49;24.80;31.30
15543;DHT22;7873;52.230;12.856;2022-12-18T14:17:18;24.80;31.40
15543;DHT22;7873;52.230;12.856;2022-12-18T14:19:46;24.80;31.60
15543;DHT22;7873;52.230;12.856;2022-12-18T14:22:16;24.70;31.50
15543;DHT22;7873;52.230;12.856;2022-12-18T14:24:44;24.60;31.70
15543;DHT22;7873;52.230;12.856;2022-12-18T14:27:22;24.60;31.80
15543;DHT22;7873;52.230;12.856;2022-12-18T14:29:50;24.60;31.90
15543;DHT22;7873;52.230;12.856;2022-12-18T14:32:18;24.50;31.90
15543;DHT22;7873;52.230;12.856;2022-12-18T14:34:46;24.40;32.10
15543;DHT22;7873;52.230;12.856;2022-12-18T14:37:16;24.40;32.20
15543;DHT22;7873;52.230;12.856;2022-12-18T14:39:54;24.30;32.30
15543;DHT22;7873;52.230;12.856;2022-12-18T14:42:24;24.30;32.30
15543;DHT22;7873;52.230;12.856;2022-12-18T14:47:58;24.10;32.50
15543;DHT22;7873;52.230;12.856;2022-12-18T14:50:25;24.10;32.60
15543;DHT22;7873;52.230;12.856;2022-12-18T14:52:53;24.00;32.70
15543;DHT22;7873;52.230;12.856;2022-12-18T14:55:20;24.00;32.80
15543;DHT22;7873;52.230;12.856;2022-12-18T14:57:49;23.90;33.00
15543;DHT22;7873;52.230;12.856;2022-12-18T15:00:18;23.90;33.00
15543;DHT22;7873;52.230;12.856;2022-12-18T15:02:46;23.80;33.00
15543;DHT22;7873;52.230;12.856;2022-12-18T15:05:17;23.70;33.10
15543;DHT22;7873;52.230;12.856;2022-12-18T15:07:45;23.70;33.30
15543;DHT22;7873;52.230;12.856;2022-12-18T15:10:15;23.60;33.30
15543;DHT22;7873;52.230;12.856;2022-12-18T15:12:43;23.60;33.40
15543;DHT22;7873;52.230;12.856;2022-12-18T15:18:12;23.50;33.60
15543;DHT22;7873;52.230;12.856;2022-12-18T15:20:42;23.40;33.80
15543;DHT22;7873;52.230;12.856;2022-12-18T15:23:15;23.40;33.80
15543;DHT22;7873;52.230;12.856;2022-12-18T15:25:45;23.30;33.90
15543;DHT22;7873;52.230;12.856;2022-12-18T15:28:15;23.30;34.00
15543;DHT22;7873;52.230;12.856;2022-12-18T15:30:57;23.20;34.10
15543;DHT22;7873;52.230;12.856;2022-12-18T15:33:30;23.20;34.10
15543;DHT22;7873;52.230;12.856;2022-12-18T15:35:58;23.20;34.10
15543;DHT22;7873;52.230;12.856;2022-12-18T15:38:26;23.20;32.70
15543;DHT22;7873;52.230;12.856;2022-12-18T15:40:55;23.30;33.20
15543;DHT22;7873;52.230;12.856;2022-12-18T15:43:22;23.30;32.50
15543;DHT22;7873;52.230;12.856;2022-12-18T15:46:02;23.30;31.10
15543;DHT22;7873;52.230;12.856;2022-12-18T15:48:31;23.30;28.20
15543;DHT22;7873;52.230;12.856;2022-12-18T15:50:59;23.20;29.10
15543;DHT22;7873;52.230;12.856;2022-12-18T15:53:27;23.30;29.10
15543;DHT22;7873;52.230;12.856;2022-12-18T15:55:58;23.40;27.10
15543;DHT22;7873;52.230;12.856;2022-12-18T15:58:42;23.10;25.80
15543;DHT22;7873;52.230;12.856;2022-12-18T16:01:09;22.80;26.90
15543;DHT22;7873;52.230;12.856;2022-12-18T16:03:37;22.70;27.70
15543;DHT22;7873;52.230;12.856;2022-12-18T16:06:04;22.70;28.10
15543;DHT22;7873;52.230;12.856;2022-12-18T16:08:31;22.70;28.70